Terminal Aerodrome Forecast
Issued by NWS

Home | Current Version | Previous Version | Graphics & Text | Print | Product List | Glossary On
Versions: 1 2 3 4 5 6 7 8 9 10 11 12 13 14 15
000
FTUS43 KBIS 190100 AAA
TAFMOT
TAF AMD
KMOT 190145Z 1902/1924 11018KT P6SM -SHRA SCT050 BKN110
      TEMPO 1902/1904 3SM SHRA BR OVC050
     FM190700 22015KT P6SM FEW050 SCT100
     FM191400 26020G30KT P6SM SCT150=

USA.gov is the U.S. government's official web portal to all federal, state and local government web resources and services.